• Join FlightAware (Why Join?)
  • Login
  • US Flag 
12:10PM EDT


 

Airport Tracker/Info


-or-


 

Live Flight TrackerFlight Track Log ✈ CTL22 ✈ 09-Jul-2013 ✈ KAZO - KBKL

Flight Track Log - Related Links

Times and Time Zones

All times are in EDT time to prevent confusion due to time zone crossing. See the CTL22 flight status page for this flight to view local times or setup timezone preferences in your user account.

Time Position Orientation Groundspeed Altitude Reporting Facility
EDT Latitude Longitude Course Direction KTS MPH feet Rate Location/Type
08:18PM 42.1722 -85.4014 115° Southeast 152 175 3,700  Level Chicago Center
08:19PM 42.1508 -85.3439 117° Southeast 165 190 4,100 480 Climbing Chicago Center
08:20PM 42.1231 -85.2706 117° Southeast 178 205 4,700 480 Climbing Chicago Center
08:21PM 42.1680 -85.1576 103° East  Level Estimated
08:21PM 42.0994 -85.2078 117° Southeast 185 213 5,100  Level Chicago Center
08:22PM 42.1568 -85.0920 103° East  Level Estimated
08:22PM 42.0792 -85.1453 114° Southeast 183 211 5,500  Level Chicago Center
08:23PM 42.0575 -85.0817 115° Southeast 185 213 6,000 420 Climbing Chicago Center
08:24PM 42.0361 -85.0186 115° Southeast 185 213 6,400 360 Climbing Chicago Center
08:25PM 42.0175 -84.9525 111° Southeast 187 215 6,800 300 Climbing Chicago Center
08:26PM 41.9900 -84.8767 116° Southeast 187 215 7,100 180 Climbing Chicago Center
08:27PM 41.9672 -84.8056 113° Southeast 200 230 7,200 -60 Climbing Chicago Center
08:28PM 41.9436 -84.7361 115° Southeast 204 235 7,000 -120 Descending Chicago Center
08:29PM 41.9153 -84.6675 119° Southeast 208 239 7,000  Level Chicago Center
08:30PM 41.8906 -84.6006 116° Southeast 202 232 7,100 60 Climbing Chicago Center
08:31PM 41.8644 -84.5350 118° Southeast 199 229 7,200  Climbing Chicago Center
08:32PM 41.8333 -84.4550 118° Southeast 200 230 7,100  Descending Chicago Center
08:33PM 41.8097 -84.3872 115° Southeast 200 230 7,200  Climbing Chicago Center
08:34PM 41.7831 -84.3214 118° Southeast 201 231 7,100  Descending Chicago Center
08:35PM 41.7567 -84.2569 119° Southeast 199 229 7,200  Climbing Chicago Center
08:36PM 41.7314 -84.1897 117° Southeast 200 230 7,100  Descending Chicago Center
08:38PM 41.7064 -84.1239 117° Southeast 200 230 7,200 60 Climbing Chicago Center